Canada's Largest FIR

CZEG Edmonton

Screenshot by Brad Derzaph

  Recent News


  Upcoming Events

24 Hours of VATSIM  March 2, 2024 22:00z

  Online Controllers

No controllers online.

  View Our Airspace

  Weather

CYYC - Calgary International Airport   VFR
CYYC 281200Z 16008G16KT 15SM BKN170 M17/M20 A2954 RMK AC6 SLP100

CYEG - Edmonton International Airport   VFR
CYEG 281200Z 14013KT 20SM FEW080 BKN240 M22/M25 A2966 RMK AC1CI6 SLP118

CYXY - Whitehorse / Erik Nielsen International Airport   MVFR
CYXY 281200Z 34006KT 5SM -SN FEW024 BKN038 OVC062 M18/M21 A2929 RMK ST2SC3SC3 /S01/ SLP986

CYZF - Yellowknife International Airport   VFR
CYZF 281200Z 09010KT 15SM SKC M30/M33 A2992 RMK SLP169

CYMM - Fort McMurray Airport   VFR
CYMM 281200Z AUTO 11005KT 9SM CLR M25/M28 A2991 RMK SLP173

CYQF - Red Deer Regional Airport   IFR
CYQF 281228Z AUTO 13009KT 4SM BR BKN005 OVC190 M21/M23 A2958 RMK SLP104

CZVL - Edmonton / Villeneuve Airport   VFR
CZVL 281200Z AUTO 14009KT 9SM BKN086 BKN190 BKN220 M21/M24 A2967 RMK SLP114

CYBW - Calgary / Springbank Airport   VFR
CYBW 281200Z AUTO 17005KT 090V190 9SM FEW110 BKN160 OVC180 M19/M22 A2952 RMK SLP097

CYOD - CFB Cold Lake   VFR
CYOD 281200Z 11004KT 15SM SCT120 BKN150 M26/M29 A2991 RMK AC3AC2 DENSITY ALT -3463FT FROIN SLP186